DW5678 Kavala GR current weather conditions

sailwx.info

Wind from 041 at 2 knots gusting 7

Air temperature 22.8° C
Dewpoint 10.5° C

Last reported at 2018-Apr-26 20:08 UTC.
Time now 2018-Apr-26 21:10 UTC

Location: N 40°56' E 024°24'.
View on Google Maps.

See reports from other nearby stations

  
Tides and Currents Weather Stations Pressure Air Temp Water Temp Dewpoint Dewpoint Depression Visibility Wind Speed Wind Dir Waves Ship Positions
date/time (UTC)wind fromknots sea level pressurealtimeterstation pressurevisibilityair tempwater tempwave heightnotes
2018-Apr-26 20:08 041 2 gusting 7 22.8
2018-Apr-26 19:58 036 4 gusting 12 22.8
2018-Apr-26 19:48 023 4 gusting 12 23.3
2018-Apr-26 19:38 028 6 gusting 14 23.3
2018-Apr-26 19:28 040 6 gusting 14 22.8
2018-Apr-26 19:18 034 6 gusting 13 22.8
2018-Apr-26 19:08 355 8 gusting 15 22.8
2018-Apr-26 18:58 019 6 gusting 14 22.8
2018-Apr-26 18:48 320 6 gusting 13 22.8
2018-Apr-26 18:38 004 7 gusting 13 23.3
2018-Apr-26 18:28 352 7 gusting 14 23.3
2018-Apr-26 18:18 036 6 gusting 14 22.8
2018-Apr-26 18:08 035 8 gusting 18 22.2
2018-Apr-26 17:58 049 6 gusting 17 21.7
2018-Apr-26 17:48 359 4 gusting 12 21.7
2018-Apr-26 17:38 301 3 gusting 12 22.2
2018-Apr-26 17:28 314 2 gusting 10 23.3
2018-Apr-26 17:18 017 5 gusting 13 23.3
2018-Apr-26 17:08 008 9 gusting 17 23.3
2018-Apr-26 16:58 358 8 gusting 18 23.3
2018-Apr-26 16:48 347 7 gusting 15 23.3
2018-Apr-26 16:38 020 8 gusting 17 23.3
2018-Apr-26 16:28 336 3 gusting 7 23.3
2018-Apr-26 16:18 317 1 gusting 6 23.9
2018-Apr-26 16:08 310 1 gusting 6 23.9
2018-Apr-26 15:58 163 23.9
2018-Apr-26 15:48 196 23.9
2018-Apr-26 15:38 196 23.9
2018-Apr-26 15:28 196 23.9
2018-Apr-26 15:08 167 23.9
2018-Apr-26 14:58 158 24.4
2018-Apr-26 14:48 158 24.4
2018-Apr-26 14:38 160 24.4
2018-Apr-26 14:28 139 0 gusting 2 24.4
2018-Apr-26 14:18 175 23.9
2018-Apr-26 14:08 169 23.9
2018-Apr-26 13:58 162 0 gusting 2 24.4
2018-Apr-26 13:48 178 0 gusting 1 24.4
2018-Apr-26 13:38 152 1 gusting 1 23.3
2018-Apr-26 13:28 172 0 gusting 2 23.3
2018-Apr-26 13:18 207 0 gusting 2 24.4
2018-Apr-26 13:08 157 0 gusting 2 23.3
2018-Apr-26 12:58 149 1 gusting 4 23.9
2018-Apr-26 12:48 177 23.3
2018-Apr-26 12:38 132 0 gusting 4 23.3
2018-Apr-26 12:28 199 0 gusting 2 23.9
2018-Apr-26 12:18 174 0 gusting 2 23.9
2018-Apr-26 12:08 194 0 gusting 2 23.9
2018-Apr-26 11:58 177 0 gusting 4 23.9
2018-Apr-26 11:48 191 0 gusting 2 23.9
2018-Apr-26 11:38 212 0 gusting 5 23.9
2018-Apr-26 11:28 136 1 gusting 2 23.9
2018-Apr-26 11:18 165 1 gusting 4 23.3
2018-Apr-26 11:08 162 1 gusting 4 23.3
2018-Apr-26 10:58 143 1 gusting 5 23.3
2018-Apr-26 10:48 133 1 gusting 4 23.3
2018-Apr-26 10:38 148 0 gusting 2 24.4
2018-Apr-26 10:28 144 0 gusting 2 24.4
2018-Apr-26 10:18 155 1 gusting 4 23.3
2018-Apr-26 10:08 232 1 gusting 4 23.3
2018-Apr-26 09:58 169 23.3
2018-Apr-26 09:48 140 1 gusting 5 23.3
2018-Apr-26 09:38 227 1 gusting 2 23.3
2018-Apr-26 09:28 231 0 gusting 5 23.3
2018-Apr-26 09:08 228 1 gusting 5 22.8
2018-Apr-26 08:58 202 2 gusting 6 22.2
2018-Apr-26 08:48 159 0 gusting 2 22.8
2018-Apr-26 08:38 222 1 gusting 2 22.2
2018-Apr-26 08:28 215 0 gusting 6 22.8
2018-Apr-26 08:18 220 0 gusting 5 23.9
2018-Apr-26 08:08 155 1 gusting 2 23.3
2018-Apr-26 07:58 088 1 gusting 4 22.8
2018-Apr-26 07:48 109 1 gusting 4 22.2
2018-Apr-26 07:38 109 0 gusting 2 22.8
2018-Apr-26 07:28 184 0 gusting 2 22.8
2018-Apr-26 07:18 140 0 gusting 4 21.7
2018-Apr-26 07:08 137 0 gusting 4 21.1
2018-Apr-26 06:58 145 1 gusting 4 21.1
2018-Apr-26 06:48 125 21.7
2018-Apr-26 06:38 084 0 gusting 1 21.7
2018-Apr-26 06:28 084 21.1
2018-Apr-26 06:18 061 21.1
2018-Apr-26 06:08 054 20.6
2018-Apr-26 05:58 053 20.6
2018-Apr-26 05:48 053 20.0
2018-Apr-26 05:38 053 19.4
2018-Apr-26 05:28 053 18.9
2018-Apr-26 05:18 053 18.9
2018-Apr-26 05:08 053 18.9
2018-Apr-26 04:58 053 18.9
2018-Apr-26 04:48 053 18.9
2018-Apr-26 04:38 051 18.9
2018-Apr-26 04:28 047 18.9
2018-Apr-26 04:18 048 0 gusting 1 18.9
2018-Apr-26 04:08 060 18.3
2018-Apr-26 03:58 181 18.3
2018-Apr-26 03:48 181 18.3
2018-Apr-26 03:38 181 18.3
2018-Apr-26 03:28 181 18.3
2018-Apr-26 03:18 180 18.3
2018-Apr-26 03:08 180 17.8
2018-Apr-26 02:58 180 18.3
2018-Apr-26 02:48 237 18.3
2018-Apr-26 02:38 030 0 gusting 1 17.8
2018-Apr-26 02:28 030 17.8
2018-Apr-26 02:18 030 17.8
2018-Apr-26 02:08 030 17.8
2018-Apr-26 01:58 030 18.3
2018-Apr-26 01:48 030 18.3
2018-Apr-26 01:38 030 18.9
2018-Apr-26 01:28 226 18.9
2018-Apr-26 01:18 220 0 gusting 1 18.9
2018-Apr-26 01:08 287 0 gusting 1 18.9
2018-Apr-26 00:58 287 19.4
2018-Apr-26 00:48 287 19.4
2018-Apr-26 00:38 287 19.4
2018-Apr-26 00:28 287 19.4
2018-Apr-26 00:18 287 19.4
2018-Apr-26 00:08 287 19.4
2018-Apr-25 23:58 287 19.4
2018-Apr-25 23:48 287 19.4
2018-Apr-25 23:38 287 19.4
2018-Apr-25 23:28 287 19.4
2018-Apr-25 23:18 287 18.9
2018-Apr-25 23:08 287 18.9
2018-Apr-25 22:58 287 19.4
2018-Apr-25 22:48 287 19.4
2018-Apr-25 22:38 287 19.4
2018-Apr-25 22:28 287 19.4
2018-Apr-25 22:18 287 19.4
2018-Apr-25 22:08 287 20.0
2018-Apr-25 21:58 287 1 gusting 2 20.0
2018-Apr-25 21:48 20.0
2018-Apr-25 21:38 20.0
2018-Apr-25 21:28 20.6
2018-Apr-25 21:18 20.6
2018-Apr-25 21:08 20.6
2018-Apr-25 20:58 20.6
2018-Apr-25 20:48 20.6
2018-Apr-25 20:38 094 20.6
2018-Apr-25 20:28 355 0 gusting 1 21.1
2018-Apr-25 20:18 355 21.1
2018-Apr-25 20:08 355 21.1
2018-Apr-25 19:58 355 21.1
2018-Apr-25 19:48 355 21.1
2018-Apr-25 19:38 355 0 gusting 1 21.1
2018-Apr-25 19:28 279 20.6
2018-Apr-25 19:18 279 20.6
2018-Apr-25 19:08 279 20.6
2018-Apr-25 18:58 279 0 gusting 0 20.6
2018-Apr-25 18:48 279 20.6
2018-Apr-25 18:38 279 21.1
2018-Apr-25 18:28 279 21.1
2018-Apr-25 18:18 21.1
2018-Apr-25 18:08 341 21.1
2018-Apr-25 17:58 258 0 gusting 1 21.7
2018-Apr-25 17:48 258 21.7
2018-Apr-25 17:38 144 21.7
2018-Apr-25 17:28 144 21.7
2018-Apr-25 17:18 144 21.7
2018-Apr-25 17:08 144 21.7
2018-Apr-25 16:58 144 22.2
2018-Apr-25 16:48 144 22.2
2018-Apr-25 16:38 144 22.2
2018-Apr-25 16:28 159 22.2
2018-Apr-25 16:18 159 22.2
2018-Apr-25 16:08 159 22.8
2018-Apr-25 15:58 159 0 gusting 0 22.8
2018-Apr-25 15:48 159 0 gusting 0 22.8
2018-Apr-25 15:38 159 22.2
2018-Apr-25 15:28 159 0 gusting 1 22.8
2018-Apr-25 15:18 163 0 gusting 1 22.8
2018-Apr-25 15:08 234 0 gusting 2 23.9
2018-Apr-25 14:58 234 1 gusting 1 24.4
2018-Apr-25 14:48 234 24.4
2018-Apr-25 14:38 234 23.9
2018-Apr-25 14:28 234 0 gusting 1 23.3
2018-Apr-25 14:18 234 0 gusting 2 23.3
2018-Apr-25 14:08 207 0 gusting 2 23.9
2018-Apr-25 13:58 044 25.0
2018-Apr-25 13:48 180 1 gusting 4 23.9
2018-Apr-25 13:38 078 0 gusting 2 23.9
2018-Apr-25 13:28 146 1 gusting 2 23.3
2018-Apr-25 13:18 162 23.3
2018-Apr-25 13:08 161 0 gusting 2 23.9
2018-Apr-25 12:58 149 1 gusting 4 24.4
2018-Apr-25 12:48 238 1 gusting 5 24.4
2018-Apr-25 12:38 229 0 gusting 5 25.0
2018-Apr-25 12:28 259 1 gusting 4 24.4
2018-Apr-25 12:18 211 1 gusting 4 23.9
2018-Apr-25 12:08 178 0 gusting 4 23.9
2018-Apr-25 11:58 215 0 gusting 2 23.3
2018-Apr-25 11:48 206 1 gusting 4 23.9
2018-Apr-25 11:38 159 1 gusting 4 23.3
2018-Apr-25 11:28 206 0 gusting 4 23.9
2018-Apr-25 11:18 185 0 gusting 5 24.4
2018-Apr-25 11:08 190 1 gusting 5 23.3
2018-Apr-25 10:58 205 2 gusting 7 23.3
2018-Apr-25 10:48 219 5 gusting 7 22.8
2018-Apr-25 10:38 219 5 gusting 8 22.8
2018-Apr-25 10:28 208 3 gusting 6 22.8
2018-Apr-25 10:18 117 0 gusting 2 22.8
2018-Apr-25 10:08 132 0 gusting 5 22.8
2018-Apr-25 09:58 062 2 gusting 6 23.9
2018-Apr-25 09:48 158 1 gusting 6 23.9
2018-Apr-25 09:38 217 4 gusting 7 23.3
2018-Apr-25 09:28 224 5 gusting 8 23.3
2018-Apr-25 09:18 235 2 gusting 6 23.3
2018-Apr-25 09:08 242 3 gusting 7 22.8
2018-Apr-25 08:58 140 2 gusting 6 25.0
2018-Apr-25 08:48 185 5 gusting 10 24.4
2018-Apr-25 08:38 216 2 gusting 7 24.4
2018-Apr-25 08:28 232 5 gusting 8 23.9
2018-Apr-25 08:18 209 5 gusting 10 23.3
2018-Apr-25 08:08 187 3 gusting 10 23.3
2018-Apr-25 07:58 141 6 gusting 12 22.8
2018-Apr-25 07:48 144 4 gusting 11 23.3
2018-Apr-25 07:38 277 2 gusting 8 23.3
2018-Apr-25 07:28 289 3 gusting 8 23.3
2018-Apr-25 07:18 252 4 gusting 6 22.8
2018-Apr-25 07:08 240 2 gusting 6 22.2
2018-Apr-25 06:58 200 1 gusting 5 21.7
2018-Apr-25 06:48 213 1 gusting 5 21.7
2018-Apr-25 06:38 248 1 gusting 4 21.1
2018-Apr-25 06:28 136 21.1
2018-Apr-25 06:18 136 21.1
2018-Apr-25 06:08 122 0 gusting 4 20.6
2018-Apr-25 05:58 040 20.6
2018-Apr-25 05:48 201 20.6
2018-Apr-25 05:38 280 0 gusting 2 20.0
2018-Apr-25 05:28 034 19.4
2018-Apr-25 05:18 032 4 gusting 4 19.4
2018-Apr-25 05:08 026 19.4
2018-Apr-25 04:58 026 20.6
2018-Apr-25 04:48 029 0 gusting 1 20.6
2018-Apr-25 04:38 029 0 gusting 4 20.0
2018-Apr-25 04:28 017 20.0
2018-Apr-25 04:18 023 19.4
2018-Apr-25 04:08 024 19.4
2018-Apr-25 03:58 024 19.4
2018-Apr-25 03:48 024 20.0
2018-Apr-25 03:38 319 19.4
2018-Apr-25 03:28 319 19.4
2018-Apr-25 03:18 319 19.4
2018-Apr-25 03:08 319 18.9
2018-Apr-25 02:58 319 0 gusting 5 18.9
2018-Apr-25 02:48 293 1 gusting 6 18.9
2018-Apr-25 02:38 262 1 gusting 5 18.3
2018-Apr-25 02:28 304 0 gusting 1 18.3
2018-Apr-25 02:18 303 18.3
2018-Apr-25 02:08 303 18.9
2018-Apr-25 01:58 313 0 gusting 1 18.9
2018-Apr-25 01:48 313 18.9
2018-Apr-25 01:38 304 0 gusting 2 18.9
2018-Apr-25 01:28 302 18.3
2018-Apr-25 01:18 250 0 gusting 1 18.3
2018-Apr-25 01:08 250 18.3
2018-Apr-25 00:58 250 18.9
2018-Apr-25 00:48 250 18.9
2018-Apr-25 00:38 194 18.9
2018-Apr-25 00:28 194 18.9
2018-Apr-25 00:18 304 0 gusting 2 18.3
2018-Apr-25 00:08 038 1 gusting 6 17.8
2018-Apr-24 23:58 254 2 gusting 6 17.8
2018-Apr-24 23:48 222 2 gusting 4 18.3
2018-Apr-24 23:38 178 1 gusting 11 18.9
2018-Apr-24 23:28 052 4 gusting 12 19.4
2018-Apr-24 23:18 057 5 gusting 11 19.4
2018-Apr-24 23:08 033 2 gusting 6 19.4
2018-Apr-24 22:58 051 19.4
2018-Apr-24 22:48 243 20.6
2018-Apr-24 22:38 215 0 gusting 13 22.8
2018-Apr-24 22:28 350 6 gusting 14 22.8
2018-Apr-24 22:18 001 5 gusting 12 22.2
2018-Apr-24 22:08 341 2 gusting 10 22.2
2018-Apr-24 21:58 070 3 gusting 10 21.7
2018-Apr-24 21:48 076 1 gusting 11 22.2
2018-Apr-24 21:38 165 2 gusting 10 21.7
2018-Apr-24 21:28 309 1 gusting 6 22.8
2018-Apr-24 21:18 301 1 gusting 6 22.8
2018-Apr-24 21:08 012 2 gusting 5 22.8